createdAt,value
2023-03-24T00:01:27.059Z,61.2
2023-03-24T00:06:27.053Z,61.3
2023-03-24T00:11:26.990Z,61.3
2023-03-24T00:16:27.270Z,61.4
2023-03-24T00:21:26.984Z,61.4
2023-03-24T00:26:26.929Z,61.5
2023-03-24T00:31:27.231Z,61.6
2023-03-24T00:36:26.996Z,61.6
2023-03-24T00:41:27.346Z,61.6
2023-03-24T00:46:26.971Z,61.7
2023-03-24T00:51:26.916Z,61.8
2023-03-24T00:56:27.231Z,61.8
2023-03-24T01:01:27.125Z,61.9
2023-03-24T01:06:26.838Z,62.0
2023-03-24T01:11:26.870Z,62.1
2023-03-24T01:16:27.325Z,62.2
2023-03-24T01:21:26.910Z,62.3
2023-03-24T01:26:26.794Z,62.3
2023-03-24T01:31:26.879Z,62.4
2023-03-24T01:36:26.791Z,62.6
2023-03-24T01:41:26.813Z,62.6
2023-03-24T01:46:27.062Z,62.7
2023-03-24T01:51:26.801Z,62.7
2023-03-24T01:56:26.781Z,62.8
2023-03-24T02:01:26.899Z,62.9
2023-03-24T02:06:26.762Z,63.0
2023-03-24T02:11:26.747Z,63.1
2023-03-24T02:16:26.894Z,63.2
2023-03-24T02:21:26.733Z,63.2
2023-03-24T02:26:26.719Z,63.2
2023-03-24T02:31:27.077Z,63.3
2023-03-24T02:36:26.786Z,63.4
2023-03-24T02:41:27.111Z,63.4
2023-03-24T02:46:26.886Z,63.5
2023-03-24T02:51:26.776Z,63.5
2023-03-24T02:56:26.718Z,63.5
2023-03-24T03:01:27.040Z,63.7
2023-03-24T03:06:26.991Z,63.8
2023-03-24T03:11:26.630Z,63.8
2023-03-24T03:16:26.725Z,63.9
2023-03-24T03:21:26.605Z,63.9
2023-03-24T03:26:26.592Z,64.0
2023-03-24T03:31:26.765Z,64.1
2023-03-24T03:36:26.597Z,64.1
2023-03-24T03:41:26.615Z,64.2
2023-03-24T03:46:30.935Z,64.2
2023-03-24T03:51:26.574Z,64.3
2023-03-24T03:56:26.584Z,64.4
2023-03-24T04:01:26.616Z,64.5
2023-03-24T04:06:26.531Z,64.6
2023-03-24T04:11:26.672Z,64.7
2023-03-24T04:16:26.605Z,64.8
2023-03-24T04:21:26.501Z,64.8
2023-03-24T04:26:26.711Z,64.9
2023-03-24T04:31:26.539Z,65.0
2023-03-24T04:36:26.520Z,65.1
2023-03-24T04:41:26.609Z,65.2
2023-03-24T04:46:26.655Z,65.3
2023-03-24T04:51:26.511Z,65.3
2023-03-24T04:56:26.568Z,65.5
2023-03-24T05:01:26.553Z,65.7
2023-03-24T05:06:26.549Z,65.8
2023-03-24T05:11:26.676Z,66.0
2023-03-24T05:16:26.513Z,66.1
2023-03-24T05:21:26.583Z,66.3
2023-03-24T05:26:26.566Z,66.5
2023-03-24T05:31:26.394Z,66.7
2023-03-24T05:36:26.506Z,66.9
2023-03-24T05:41:26.519Z,67.1
2023-03-24T05:46:26.806Z,67.3
2023-03-24T05:56:26.343Z,67.5
2023-03-24T06:01:26.394Z,67.7
2023-03-24T06:06:26.395Z,67.8
2023-03-24T06:11:26.494Z,67.8
2023-03-24T06:16:26.427Z,68.0
2023-03-24T06:21:26.431Z,68.1
2023-03-24T06:26:26.431Z,68.2
2023-03-24T06:31:26.373Z,68.3
2023-03-24T06:36:26.300Z,68.5
2023-03-24T06:41:26.412Z,68.7
2023-03-24T06:46:26.387Z,68.8
2023-03-24T06:51:26.309Z,69.1
2023-03-24T06:56:26.626Z,69.2
2023-03-24T07:01:26.514Z,69.3
2023-03-24T07:06:26.420Z,69.4
2023-03-24T07:11:26.532Z,69.5
2023-03-24T07:16:26.275Z,69.7
2023-03-24T07:21:26.365Z,69.7
2023-03-24T07:26:26.419Z,69.8
2023-03-24T07:31:26.248Z,69.9
2023-03-24T07:36:26.258Z,69.9
2023-03-24T07:41:26.404Z,70.2
2023-03-24T07:46:26.308Z,70.3
2023-03-24T07:51:26.201Z,70.3
2023-03-24T07:56:26.402Z,70.4
2023-03-24T08:01:26.200Z,70.3
2023-03-24T08:06:26.339Z,70.3
2023-03-24T08:11:26.398Z,70.4
2023-03-24T08:16:26.264Z,70.5
2023-03-24T08:21:26.532Z,70.6
2023-03-24T08:26:26.473Z,70.5
2023-03-24T08:31:26.180Z,70.4
2023-03-24T08:36:26.130Z,70.3
2023-03-24T08:41:26.542Z,70.3
2023-03-24T08:46:26.243Z,70.2
2023-03-24T08:51:26.244Z,70.1
2023-03-24T08:56:26.451Z,70.1
2023-03-24T09:01:26.257Z,70.0
2023-03-24T09:06:26.084Z,69.9
2023-03-24T09:11:26.574Z,70.0
2023-03-24T09:16:26.146Z,69.8
2023-03-24T09:21:26.196Z,69.7
2023-03-24T09:26:26.407Z,69.4
2023-03-24T09:31:26.327Z,69.1
2023-03-24T09:36:26.249Z,68.9
2023-03-24T09:41:26.075Z,68.1
2023-03-24T09:46:26.124Z,67.5
2023-03-24T09:51:48.805Z,66.4
2023-03-24T09:56:26.239Z,66.5
2023-03-24T10:01:26.057Z,65.7
2023-03-24T10:06:26.160Z,65.5
2023-03-24T10:11:26.146Z,64.8
2023-03-24T10:16:26.130Z,64.0
2023-03-24T10:21:26.022Z,63.6
2023-03-24T10:23:22.039Z,63.2
2023-03-24T10:28:22.030Z,62.9
2023-03-24T10:33:21.166Z,62.3
2023-03-24T10:38:21.218Z,62.2
2023-03-24T10:43:21.551Z,61.7
2023-03-24T10:48:21.429Z,61.5
2023-03-24T10:53:22.129Z,61.2
2023-03-24T10:58:21.556Z,60.5
2023-03-24T11:03:21.769Z,60.7
2023-03-24T11:08:22.585Z,60.5
2023-03-24T11:13:21.565Z,60.3
2023-03-24T11:18:22.069Z,59.8
2023-03-24T11:23:21.168Z,59.8
2023-03-24T11:28:22.594Z,59.7
2023-03-24T11:33:21.306Z,59.5
2023-03-24T11:38:21.943Z,59.3
2023-03-24T11:43:21.145Z,58.8
2023-03-24T11:48:21.223Z,58.1
2023-03-24T11:53:21.379Z,58.0
2023-03-24T11:58:21.159Z,57.8
2023-03-24T12:03:21.409Z,57.3
2023-03-24T12:08:21.549Z,56.7
2023-03-24T12:13:32.478Z,56.4
2023-03-24T12:18:21.175Z,56.1
2023-03-24T12:23:22.384Z,55.5
2023-03-24T12:28:21.003Z,55.2
2023-03-24T12:33:22.426Z,55.4
2023-03-24T12:38:21.403Z,54.8
2023-03-24T12:43:21.750Z,54.4
2023-03-24T12:48:21.513Z,54.1
2023-03-24T12:53:21.847Z,54.1
2023-03-24T12:58:21.414Z,54.3
2023-03-24T13:03:22.443Z,54.0
2023-03-24T13:08:21.506Z,53.9
2023-03-24T13:13:21.776Z,53.8
2023-03-24T13:18:20.928Z,53.9
2023-03-24T13:23:22.513Z,53.8
2023-03-24T13:28:21.734Z,53.5
2023-03-24T13:33:38.096Z,53.5
2023-03-24T13:38:23.223Z,53.4
2023-03-24T13:43:21.478Z,53.4
2023-03-24T13:48:22.589Z,53.3
2023-03-24T13:58:22.640Z,53.3
2023-03-24T14:03:21.480Z,53.5
2023-03-24T14:08:21.981Z,53.7
2023-03-24T14:13:21.372Z,53.8
2023-03-24T14:18:22.090Z,53.9
2023-03-24T14:23:22.497Z,53.9
2023-03-24T14:28:22.173Z,54.1
2023-03-24T14:33:20.733Z,54.1
2023-03-24T14:38:21.380Z,54.2
2023-03-24T14:43:20.690Z,54.4
2023-03-24T14:48:21.113Z,54.6
2023-03-24T14:53:20.970Z,54.7
2023-03-24T14:58:21.565Z,54.7
2023-03-24T15:03:21.753Z,54.7
2023-03-24T15:08:21.828Z,54.8
2023-03-24T15:13:21.023Z,54.9
2023-03-24T15:18:21.745Z,55.0
2023-03-24T15:23:20.779Z,55.1
2023-03-24T15:28:31.422Z,55.1
2023-03-24T15:33:20.663Z,55.3
2023-03-24T15:38:21.900Z,55.3
2023-03-24T15:43:21.439Z,55.3
2023-03-24T15:48:20.605Z,55.3
2023-03-24T15:53:20.694Z,55.5
2023-03-24T15:58:20.673Z,55.5
2023-03-24T16:03:21.038Z,55.3
2023-03-24T16:08:21.368Z,55.8
2023-03-24T16:13:21.074Z,56.0
2023-03-24T16:18:20.944Z,56.3
2023-03-24T16:23:20.675Z,56.6
2023-03-24T16:33:20.865Z,57.3
2023-03-24T16:38:20.601Z,58.0
2023-03-24T16:43:21.547Z,58.5
2023-03-24T16:48:20.983Z,59.0
2023-03-24T16:53:20.934Z,59.4
2023-03-24T16:58:20.764Z,59.7
2023-03-24T17:03:20.817Z,60.1
2023-03-24T17:08:20.634Z,60.5
2023-03-24T17:13:20.444Z,60.9
2023-03-24T17:18:20.736Z,61.0
2023-03-24T17:23:20.541Z,61.3
2023-03-24T17:28:20.527Z,61.6
2023-03-24T17:33:20.712Z,61.7
2023-03-24T17:38:20.613Z,61.9
2023-03-24T17:43:20.559Z,62.1
2023-03-24T17:48:20.777Z,62.3
2023-03-24T17:53:22.603Z,62.5
2023-03-24T17:58:20.578Z,62.7
2023-03-24T18:03:20.516Z,63.2
2023-03-24T18:08:20.622Z,63.0
2023-03-24T18:13:20.450Z,63.2
2023-03-24T18:18:20.490Z,63.4
2023-03-24T18:23:20.481Z,63.6
2023-03-24T18:28:20.600Z,63.8
2023-03-24T18:33:20.481Z,64.0
2023-03-24T18:38:20.391Z,64.2
2023-03-24T18:43:20.601Z,64.3
2023-03-24T18:48:20.717Z,64.4
2023-03-24T18:53:20.439Z,64.6
2023-03-24T18:58:20.362Z,64.9
2023-03-24T19:03:20.496Z,64.9
2023-03-24T19:08:20.538Z,65.0
2023-03-24T19:13:20.730Z,65.2
2023-03-24T19:18:20.299Z,65.3
2023-03-24T19:23:20.425Z,65.5
2023-03-24T19:28:20.574Z,65.5
2023-03-24T19:33:20.387Z,65.5
2023-03-24T19:38:20.460Z,65.6
2023-03-24T19:43:20.497Z,65.7
2023-03-24T19:48:20.584Z,65.9
2023-03-24T19:53:20.795Z,65.9
2023-03-24T19:58:20.337Z,66.1
2023-03-24T20:03:20.962Z,66.3
2023-03-24T20:08:20.260Z,66.4
2023-03-24T20:13:20.518Z,66.5
2023-03-24T20:18:20.244Z,66.7
2023-03-24T20:23:20.282Z,66.8
2023-03-24T20:28:20.379Z,67.0
2023-03-24T20:33:20.196Z,67.2
2023-03-24T20:38:20.207Z,67.2
2023-03-24T20:43:20.457Z,67.2
2023-03-24T20:48:20.142Z,67.2
2023-03-24T20:53:20.233Z,67.3
2023-03-24T20:58:20.365Z,67.4
2023-03-24T21:03:20.259Z,67.5
2023-03-24T21:08:20.116Z,67.6
2023-03-24T21:13:21.801Z,67.7
2023-03-24T21:18:20.184Z,67.7
2023-03-24T21:23:20.260Z,67.8
2023-03-24T21:28:20.053Z,67.9
2023-03-24T21:33:20.158Z,68.0
2023-03-24T21:38:20.197Z,68.2
2023-03-24T21:43:20.269Z,68.3
2023-03-24T21:48:20.193Z,68.4
2023-03-24T21:53:20.160Z,68.5
2023-03-24T21:58:20.265Z,68.5
2023-03-24T22:03:20.147Z,68.6
2023-03-24T22:08:20.119Z,68.6
2023-03-24T22:13:20.274Z,68.8
2023-03-24T22:18:20.096Z,68.8
2023-03-24T22:23:20.080Z,68.8
2023-03-24T22:28:20.160Z,68.8
2023-03-24T22:33:20.979Z,68.9
2023-03-24T22:35:49.249Z,69.0
2023-03-24T22:36:00.000Z,69.1
2023-03-24T22:37:19.048Z,69.1
2023-03-24T22:38:18.978Z,69.1
2023-03-24T22:39:18.830Z,69.1
2023-03-24T22:40:19.224Z,69.0
2023-03-24T22:41:18.131Z,69.0
2023-03-24T22:42:18.147Z,69.1
2023-03-24T22:43:18.172Z,69.0
2023-03-24T22:44:18.137Z,69.0
2023-03-24T22:45:19.487Z,69.1
2023-03-24T22:46:18.181Z,69.1
2023-03-24T22:47:18.110Z,69.1
2023-03-24T22:48:18.091Z,69.1
2023-03-24T22:49:18.118Z,69.1
2023-03-24T22:50:18.137Z,69.1
2023-03-24T22:51:18.083Z,69.4
2023-03-24T22:52:18.095Z,69.2
2023-03-24T22:53:18.068Z,69.3
2023-03-24T22:54:18.099Z,69.2
2023-03-24T22:55:18.173Z,69.2
2023-03-24T22:56:18.127Z,69.3
2023-03-24T22:57:18.101Z,69.3
2023-03-24T22:58:18.185Z,69.3
2023-03-24T22:59:18.103Z,69.3
2023-03-24T23:00:18.082Z,69.3
2023-03-24T23:01:18.307Z,69.3
2023-03-24T23:02:18.137Z,69.3
2023-03-24T23:03:18.168Z,69.3
2023-03-24T23:04:18.045Z,69.3
2023-03-24T23:05:18.091Z,69.3
2023-03-24T23:06:18.073Z,69.4
2023-03-24T23:07:18.088Z,69.4
2023-03-24T23:08:18.059Z,69.4
2023-03-24T23:09:18.069Z,69.4
2023-03-24T23:10:18.084Z,69.4
2023-03-24T23:11:18.095Z,69.4
2023-03-24T23:12:18.335Z,69.4
2023-03-24T23:13:18.090Z,69.4
2023-03-24T23:14:18.070Z,69.4
2023-03-24T23:15:18.119Z,69.4
2023-03-24T23:16:18.101Z,69.4
2023-03-24T23:17:18.075Z,69.4
2023-03-24T23:18:18.113Z,69.4
2023-03-24T23:19:18.079Z,69.5
2023-03-24T23:20:18.059Z,69.5
2023-03-24T23:21:18.027Z,69.5
2023-03-24T23:22:18.076Z,69.5
2023-03-24T23:23:18.093Z,69.5
2023-03-24T23:24:18.069Z,69.5
2023-03-24T23:25:18.051Z,69.6
2023-03-24T23:26:26.389Z,69.5
2023-03-24T23:27:18.070Z,69.6
2023-03-24T23:28:18.050Z,69.6
2023-03-24T23:29:18.116Z,69.5
2023-03-24T23:30:18.056Z,69.6
2023-03-24T23:31:18.111Z,69.6
2023-03-24T23:32:18.095Z,69.6
2023-03-24T23:33:18.370Z,69.6
2023-03-24T23:34:18.024Z,69.6
2023-03-24T23:35:18.093Z,69.7
2023-03-24T23:36:19.379Z,69.7
2023-03-24T23:37:18.043Z,69.7
2023-03-24T23:38:18.026Z,69.7
2023-03-24T23:39:19.248Z,69.7
2023-03-24T23:40:18.050Z,69.8
2023-03-24T23:41:18.088Z,69.8
2023-03-24T23:42:18.050Z,69.7
2023-03-24T23:43:18.064Z,69.8
2023-03-24T23:44:18.126Z,69.8
2023-03-24T23:45:18.280Z,69.8
2023-03-24T23:46:18.067Z,69.8
2023-03-24T23:47:18.022Z,69.9
2023-03-24T23:48:18.048Z,69.9
2023-03-24T23:49:17.990Z,69.9
2023-03-24T23:50:17.978Z,69.9
2023-03-24T23:51:18.055Z,69.9
2023-03-24T23:52:18.014Z,69.9
2023-03-24T23:53:17.985Z,69.9
2023-03-24T23:54:18.007Z,70.0
2023-03-24T23:55:19.214Z,70.0
2023-03-24T23:56:18.007Z,70.0
2023-03-24T23:57:18.154Z,70.0
2023-03-24T23:58:18.201Z,70.0
2023-03-24T23:59:18.007Z,70.0
